Time;durP1;ratioP1;P1;durP2;ratioP2;P2;SDS_P1;SDS_P2;PMS_P1;PMS_P2;Temp;Humidity;BMP_temperature;BMP_pressure;BME280_temperature;BME280_humidity;BME280_pressure;Samples;Min_cycle;Max_cycle;Signal;HPM_P1;HPM_P2
2022/06/24 00:00:14;;;;;;;;;;;23.60;88.60;;;;;;4992257;28;20004;-79
2022/06/24 00:02:41;;;;;;;;;;;23.60;88.70;;;;;;5010406;28;19933;-80
2022/06/24 00:05:10;;;;;;;;;;;23.50;88.80;;;;;;5014539;28;20403;-80
2022/06/24 00:07:44;;;;;;;;;;;23.50;89.00;;;;;;5010603;28;19976;-80
2022/06/24 00:10:14;;;;;;;;;;;23.50;89.10;;;;;;4991631;28;19932;-80
2022/06/24 00:12:44;;;;;;;;;;;23.50;89.80;;;;;;5009391;28;19940;-79
2022/06/24 00:15:11;;;;;;;;;;;23.40;89.30;;;;;;5002944;28;20495;-79
2022/06/24 00:17:38;;;;;;;;;;;23.40;89.30;;;;;;5012432;28;19926;-79
2022/06/24 00:20:06;;;;;;;;;;;23.40;89.40;;;;;;5011210;28;19987;-80
2022/06/24 00:22:42;;;;;;;;;;;23.30;89.30;;;;;;5007044;28;20369;-80
2022/06/24 00:25:10;;;;;;;;;;;23.30;89.40;;;;;;5004822;28;19956;-79
2022/06/24 00:27:37;;;;;;;;;;;23.30;89.60;;;;;;5014212;28;19926;-80
2022/06/24 00:30:10;;;;;;;;;;;23.20;89.70;;;;;;4994520;28;19929;-80
2022/06/24 00:32:37;;;;;;;;;;;23.20;89.80;;;;;;4995187;28;20593;-80
2022/06/24 00:35:04;;;;;;;;;;;23.20;90.00;;;;;;5006470;28;19933;-80
2022/06/24 00:37:32;;;;;;;;;;;23.20;90.00;;;;;;4995897;28;19925;-80
2022/06/24 00:40:00;;;;;;;;;;;23.10;90.00;;;;;;5012036;28;19937;-80
2022/06/24 00:42:27;;;;;;;;;;;23.10;90.00;;;;;;4987048;28;19992;-79
2022/06/24 00:44:59;;;;;;;;;;;23.10;90.10;;;;;;4996111;28;19929;-80
2022/06/24 00:47:28;;;;;;;;;;;23.10;90.20;;;;;;5019985;28;19987;-80
2022/06/24 00:49:57;;;;;;;;;;;23.00;90.20;;;;;;5008727;28;20406;-80
2022/06/24 00:52:24;;;;;;;;;;;23.00;90.40;;;;;;5011028;28;19931;-80
2022/06/24 00:54:51;;;;;;;;;;;;;;;;;;4992302;28;20354;-80
2022/06/24 00:57:20;;;;;;;;;;;22.90;90.20;;;;;;5009599;28;20246;-80
2022/06/24 00:59:48;;;;;;;;;;;22.90;90.50;;;;;;5002657;28;19952;-80
2022/06/24 01:02:16;;;;;;;;;;;22.90;90.50;;;;;;5012752;28;19929;-80
2022/06/24 01:04:45;;;;;;;;;;;22.90;90.60;;;;;;5011484;28;19932;-80
2022/06/24 01:07:12;;;;;;;;;;;22.80;90.60;;;;;;5013605;28;19949;-80
2022/06/24 01:09:39;;;;;;;;;;;22.80;90.70;;;;;;5009552;28;20343;-80
2022/06/24 01:12:06;;;;;;;;;;;22.80;90.70;;;;;;5001477;28;19933;-80
2022/06/24 01:14:33;;;;;;;;;;;22.80;90.80;;;;;;5011749;28;20388;-80
2022/06/24 01:16:59;;;;;;;;;;;22.70;90.80;;;;;;5004754;28;19925;-80
2022/06/24 01:19:27;;;;;;;;;;;22.70;90.80;;;;;;5025037;28;19925;-79
2022/06/24 01:21:55;;;;;;;;;;;22.70;90.80;;;;;;5012105;28;20581;-80
2022/06/24 01:24:24;;;;;;;;;;;22.70;90.90;;;;;;5014435;28;19926;-80
2022/06/24 01:26:52;;;;;;;;;;;22.60;90.80;;;;;;5011389;28;19925;-80
2022/06/24 01:29:19;;;;;;;;;;;22.60;90.80;;;;;;5015453;28;19984;-80
2022/06/24 01:31:48;;;;;;;;;;;22.60;90.80;;;;;;5016470;28;19925;-80
2022/06/24 01:34:16;;;;;;;;;;;22.60;90.80;;;;;;5017178;28;19969;-80
2022/06/24 01:36:43;;;;;;;;;;;22.50;90.80;;;;;;5022125;28;19929;-80
2022/06/24 01:39:11;;;;;;;;;;;22.50;91.00;;;;;;5012277;28;19932;-80
2022/06/24 01:41:38;;;;;;;;;;;22.50;90.90;;;;;;5013605;28;19961;-80
2022/06/24 01:44:05;;;;;;;;;;;22.40;90.60;;;;;;5012307;28;19933;-80
2022/06/24 01:46:32;;;;;;;;;;;22.40;90.90;;;;;;5012764;28;20284;-80
2022/06/24 01:48:59;;;;;;;;;;;22.40;90.90;;;;;;5011666;28;19929;-80
2022/06/24 01:51:26;;;;;;;;;;;22.40;91.00;;;;;;5015737;28;19925;-80
2022/06/24 01:53:53;;;;;;;;;;;22.40;91.00;;;;;;5008462;28;19926;-80
2022/06/24 01:56:22;;;;;;;;;;;22.40;91.10;;;;;;5008572;28;19929;-80
2022/06/24 01:58:49;;;;;;;;;;;22.30;91.10;;;;;;5014559;28;19929;-80
2022/06/24 02:01:19;;;;;;;;;;;22.30;91.00;;;;;;5010903;28;20028;-80
2022/06/24 02:03:46;;;;;;;;;;;22.30;91.00;;;;;;5010987;28;19926;-80
2022/06/24 02:06:14;;;;;;;;;;;22.30;91.10;;;;;;5014872;28;19932;-80
2022/06/24 02:08:41;;;;;;;;;;;22.20;90.70;;;;;;5015013;28;19925;-80
2022/06/24 02:13:57;;;;;;;;;;;22.20;91.00;;;;;;5012527;28;19921;-80
2022/06/24 02:16:24;;;;;;;;;;;22.20;91.00;;;;;;5018313;28;20304;-80
2022/06/24 02:18:51;;;;;;;;;;;22.10;91.00;;;;;;5012464;28;19925;-79
2022/06/24 02:21:18;;;;;;;;;;;22.10;91.00;;;;;;5006441;28;19929;-80
2022/06/24 02:23:44;;;;;;;;;;;22.10;91.00;;;;;;5012350;28;19933;-80
2022/06/24 02:26:11;;;;;;;;;;;22.10;91.10;;;;;;5010565;28;19925;-80
2022/06/24 02:28:38;;;;;;;;;;;22.10;91.10;;;;;;5012315;28;19929;-80
2022/06/24 02:31:07;;;;;;;;;;;22.00;91.10;;;;;;5009243;28;19932;-80
2022/06/24 02:33:34;;;;;;;;;;;22.00;91.10;;;;;;5013229;28;19933;-79
2022/06/24 02:36:01;;;;;;;;;;;22.00;91.10;;;;;;5019171;28;19934;-80
2022/06/24 02:38:28;;;;;;;;;;;22.00;91.20;;;;;;5021624;28;19926;-80
2022/06/24 02:40:55;;;;;;;;;;;21.90;91.10;;;;;;5008605;28;19925;-80
2022/06/24 02:43:23;;;;;;;;;;;21.90;91.10;;;;;;5010592;28;19930;-80
2022/06/24 02:45:51;;;;;;;;;;;21.90;91.20;;;;;;5013373;28;19925;-79
2022/06/24 02:48:20;;;;;;;;;;;21.90;91.20;;;;;;5017522;28;19979;-80
2022/06/24 02:50:47;;;;;;;;;;;;;;;;;;5015300;28;19925;-79
2022/06/24 02:53:16;;;;;;;;;;;21.80;91.00;;;;;;5017129;28;19925;-80
2022/06/24 02:55:43;;;;;;;;;;;21.80;91.40;;;;;;5010000;28;20445;-80
2022/06/24 02:58:10;;;;;;;;;;;21.80;91.30;;;;;;5010094;28;19925;-80
2022/06/24 03:00:39;;;;;;;;;;;21.80;91.40;;;;;;5010393;28;20446;-80
2022/06/24 03:03:06;;;;;;;;;;;21.70;91.40;;;;;;5019500;28;19932;-80
2022/06/24 03:05:35;;;;;;;;;;;21.70;91.70;;;;;;5013050;28;19957;-79
2022/06/24 03:08:01;;;;;;;;;;;21.70;91.40;;;;;;5008268;28;19979;-80
2022/06/24 03:10:29;;;;;;;;;;;21.70;91.40;;;;;;5045257;23;19948;-77
2022/06/24 03:12:56;;;;;;;;;;;21.70;91.40;;;;;;5045010;28;20247;-82
2022/06/24 03:15:23;;;;;;;;;;;21.60;91.40;;;;;;5046419;28;19924;-78
2022/06/24 03:17:50;;;;;;;;;;;21.60;91.40;;;;;;5047816;28;19960;-78
2022/06/24 03:20:17;;;;;;;;;;;21.60;91.50;;;;;;5040661;28;20323;-80
2022/06/24 03:22:45;;;;;;;;;;;21.60;91.50;;;;;;5039349;28;20012;-82
2022/06/24 03:25:12;;;;;;;;;;;21.60;91.60;;;;;;5058774;28;19982;-78
2022/06/24 03:27:39;;;;;;;;;;;21.60;91.60;;;;;;5042427;28;19975;-78
2022/06/24 03:30:07;;;;;;;;;;;21.50;91.50;;;;;;5046808;28;19932;-78
2022/06/24 03:32:34;;;;;;;;;;;21.50;91.60;;;;;;5037255;28;20460;-78
2022/06/24 03:35:02;;;;;;;;;;;21.50;91.60;;;;;;5043274;28;19931;-80
2022/06/24 03:37:29;;;;;;;;;;;21.50;91.60;;;;;;5043974;28;19969;-76
2022/06/24 03:39:58;;;;;;;;;;;21.40;91.60;;;;;;5042006;28;19925;-79
2022/06/24 03:42:25;;;;;;;;;;;21.40;91.60;;;;;;5042967;28;19935;-79
2022/06/24 03:44:52;;;;;;;;;;;21.40;91.70;;;;;;5043143;28;20422;-77
2022/06/24 03:47:19;;;;;;;;;;;21.40;91.80;;;;;;5044768;28;19928;-78
2022/06/24 03:49:46;;;;;;;;;;;21.40;91.80;;;;;;5041446;28;19970;-79
2022/06/24 03:52:13;;;;;;;;;;;21.30;91.80;;;;;;5044791;28;19925;-78
2022/06/24 03:54:40;;;;;;;;;;;21.30;91.80;;;;;;5043441;28;19940;-76
2022/06/24 03:57:08;;;;;;;;;;;21.30;91.80;;;;;;5043009;28;19928;-75
2022/06/24 03:59:35;;;;;;;;;;;21.30;91.90;;;;;;5042183;28;19925;-75
2022/06/24 04:02:02;;;;;;;;;;;21.30;91.90;;;;;;5043626;28;19928;-78
2022/06/24 04:04:28;;;;;;;;;;;21.30;91.90;;;;;;5040976;28;20439;-76
2022/06/24 04:06:55;;;;;;;;;;;21.20;91.90;;;;;;5040202;28;19935;-76
2022/06/24 04:09:23;;;;;;;;;;;21.20;92.00;;;;;;5042284;28;19932;-76
2022/06/24 04:11:50;;;;;;;;;;;21.20;92.10;;;;;;5037728;28;19932;-76
2022/06/24 04:15:13;;;;;;;;;;;21.20;92.50;;;;;;5041510;28;20441;-75
2022/06/24 04:17:05;;;;;;;;;;;21.10;91.80;;;;;;5039264;28;19925;-75
2022/06/24 04:19:34;;;;;;;;;;;21.10;92.00;;;;;;5045376;28;19925;-77
2022/06/24 04:22:01;;;;;;;;;;;21.10;92.00;;;;;;5038471;28;20031;-76
2022/06/24 04:24:28;;;;;;;;;;;21.10;92.00;;;;;;5048012;28;19950;-78
2022/06/24 04:26:55;;;;;;;;;;;21.10;92.00;;;;;;5048326;28;19932;-75
2022/06/24 04:29:23;;;;;;;;;;;21.10;91.90;;;;;;5042648;28;19943;-75
2022/06/24 04:31:50;;;;;;;;;;;21.10;91.90;;;;;;5043866;28;20341;-75
2022/06/24 04:34:17;;;;;;;;;;;21.00;91.90;;;;;;5046389;28;19960;-74
2022/06/24 04:36:44;;;;;;;;;;;21.00;92.00;;;;;;5044058;28;19925;-74
2022/06/24 04:39:10;;;;;;;;;;;21.00;92.00;;;;;;5043132;28;20306;-75
2022/06/24 04:41:37;;;;;;;;;;;21.00;92.10;;;;;;5046268;28;19929;-76
2022/06/24 04:44:04;;;;;;;;;;;21.00;92.10;;;;;;5045700;28;19931;-79
2022/06/24 04:46:33;;;;;;;;;;;21.00;92.10;;;;;;5042548;28;19933;-76
2022/06/24 04:48:59;;;;;;;;;;;20.90;92.10;;;;;;5042762;28;19990;-77
2022/06/24 04:51:27;;;;;;;;;;;20.90;92.20;;;;;;5042377;28;19928;-75
2022/06/24 04:53:53;;;;;;;;;;;20.90;92.20;;;;;;5041428;28;20464;-75
2022/06/24 04:56:20;;;;;;;;;;;20.90;92.20;;;;;;5036108;28;20039;-77
2022/06/24 04:58:47;;;;;;;;;;;20.90;92.20;;;;;;5044166;28;19932;-75
2022/06/24 05:01:14;;;;;;;;;;;20.90;92.20;;;;;;5046638;28;20441;-77
2022/06/24 05:03:42;;;;;;;;;;;20.80;92.50;;;;;;5039205;28;20181;-75
2022/06/24 05:06:09;;;;;;;;;;;20.80;92.20;;;;;;5039843;28;20422;-76
2022/06/24 05:08:36;;;;;;;;;;;20.80;92.20;;;;;;5038987;28;19925;-76
2022/06/24 05:11:03;;;;;;;;;;;20.80;92.20;;;;;;5035367;28;19973;-76
2022/06/24 05:13:30;;;;;;;;;;;20.80;92.60;;;;;;5039302;28;19935;-74
2022/06/24 05:15:58;;;;;;;;;;;20.80;93.20;;;;;;5041397;28;19925;-76
2022/06/24 05:18:25;;;;;;;;;;;20.80;93.60;;;;;;5045354;28;19924;-77
2022/06/24 05:20:53;;;;;;;;;;;20.80;93.90;;;;;;5037109;28;20211;-76
2022/06/24 05:23:20;;;;;;;;;;;20.80;94.10;;;;;;5056017;28;19928;-76
2022/06/24 05:25:46;;;;;;;;;;;20.70;94.30;;;;;;5040034;28;20049;-76
2022/06/24 05:28:13;;;;;;;;;;;20.70;94.40;;;;;;5044861;28;19936;-77
2022/06/24 05:30:40;;;;;;;;;;;20.70;94.60;;;;;;5043287;28;20035;-77
2022/06/24 05:33:07;;;;;;;;;;;20.70;94.70;;;;;;5044202;28;19925;-76
2022/06/24 05:35:34;;;;;;;;;;;20.70;94.90;;;;;;5042235;28;19925;-75
2022/06/24 05:38:03;;;;;;;;;;;20.60;95.00;;;;;;5040209;28;19931;-76
2022/06/24 05:40:29;;;;;;;;;;;20.60;95.20;;;;;;5046479;28;20019;-76
2022/06/24 05:42:56;;;;;;;;;;;20.60;95.30;;;;;;5040063;28;20339;-78
2022/06/24 05:45:24;;;;;;;;;;;20.60;95.50;;;;;;5048010;28;19924;-78
2022/06/24 05:47:51;;;;;;;;;;;20.60;95.70;;;;;;5045269;28;19960;-78
2022/06/24 05:50:18;;;;;;;;;;;20.60;95.80;;;;;;5044718;28;19929;-79
2022/06/24 05:55:36;;;;;;;;;;;20.60;95.80;;;;;;4995524;28;20036;-79
2022/06/24 05:58:02;;;;;;;;;;;20.60;95.90;;;;;;5043357;28;19929;-78
2022/06/24 06:00:31;;;;;;;;;;;20.60;95.90;;;;;;5039228;28;19928;-80
2022/06/24 06:02:57;;;;;;;;;;;20.60;96.00;;;;;;5048120;28;19925;-79
2022/06/24 06:05:27;;;;;;;;;;;20.60;96.10;;;;;;5044349;28;19925;-80
2022/06/24 06:07:53;;;;;;;;;;;20.60;96.10;;;;;;5043632;28;20056;-79
2022/06/24 06:10:20;;;;;;;;;;;20.50;96.20;;;;;;5061104;28;19943;-78
2022/06/24 06:12:48;;;;;;;;;;;20.50;96.30;;;;;;5050011;28;19925;-78
2022/06/24 06:15:15;;;;;;;;;;;20.50;96.40;;;;;;5051126;28;19933;-79
2022/06/24 06:17:42;;;;;;;;;;;20.50;96.40;;;;;;5039378;28;19935;-78
2022/06/24 06:20:13;;;;;;;;;;;20.50;96.30;;;;;;5050320;28;19929;-78
2022/06/24 06:22:40;;;;;;;;;;;20.50;96.10;;;;;;5063650;28;20412;-81
2022/06/24 06:25:08;;;;;;;;;;;20.50;95.90;;;;;;5048830;28;19928;-78
2022/06/24 06:27:36;;;;;;;;;;;20.50;95.70;;;;;;5045844;28;19941;-81
2022/06/24 06:30:05;;;;;;;;;;;20.50;95.60;;;;;;5045688;28;20357;-79
2022/06/24 06:32:32;;;;;;;;;;;20.50;95.50;;;;;;5045605;28;19948;-81
2022/06/24 06:34:59;;;;;;;;;;;20.50;95.40;;;;;;5041939;28;20047;-80
2022/06/24 06:37:26;;;;;;;;;;;20.50;95.30;;;;;;5048534;28;19925;-79
2022/06/24 06:39:53;;;;;;;;;;;20.50;95.20;;;;;;5049538;28;19932;-79
2022/06/24 06:42:20;;;;;;;;;;;20.50;95.10;;;;;;5061226;28;19932;-79
2022/06/24 06:44:47;;;;;;;;;;;20.50;95.20;;;;;;5045968;28;19986;-79
2022/06/24 06:47:15;;;;;;;;;;;20.50;95.10;;;;;;5047216;28;20327;-81
2022/06/24 06:49:42;;;;;;;;;;;20.50;95.10;;;;;;5043861;28;19925;-79
2022/06/24 06:52:09;;;;;;;;;;;20.50;94.90;;;;;;5040900;28;19971;-80
2022/06/24 06:54:37;;;;;;;;;;;20.50;94.90;;;;;;5038905;28;19986;-80
2022/06/24 06:57:04;;;;;;;;;;;20.40;94.80;;;;;;5043478;28;20391;-80
2022/06/24 06:59:31;;;;;;;;;;;20.40;94.70;;;;;;5047251;28;19933;-79
2022/06/24 07:01:57;;;;;;;;;;;20.40;94.60;;;;;;5062061;28;19929;-79
2022/06/24 07:04:26;;;;;;;;;;;20.40;94.50;;;;;;5047211;28;19933;-80
2022/06/24 07:06:53;;;;;;;;;;;20.40;94.50;;;;;;5049168;28;19936;-80
2022/06/24 07:09:20;;;;;;;;;;;20.40;94.50;;;;;;5046516;28;19937;-80
2022/06/24 07:11:47;;;;;;;;;;;20.40;94.40;;;;;;5050237;28;19928;-80
2022/06/24 07:14:14;;;;;;;;;;;20.40;94.40;;;;;;5046110;28;19925;-80
2022/06/24 07:16:41;;;;;;;;;;;20.40;94.40;;;;;;5052570;28;20229;-80
2022/06/24 07:19:08;;;;;;;;;;;20.40;94.30;;;;;;5046383;28;20361;-80
2022/06/24 07:21:36;;;;;;;;;;;20.40;94.30;;;;;;5043865;28;19940;-80
2022/06/24 07:24:03;;;;;;;;;;;20.40;94.30;;;;;;5049266;28;19968;-80
2022/06/24 07:26:30;;;;;;;;;;;20.40;94.20;;;;;;5049789;28;19929;-80
2022/06/24 07:28:57;;;;;;;;;;;20.40;94.20;;;;;;5051580;28;20043;-80
2022/06/24 07:31:24;;;;;;;;;;;20.40;94.20;;;;;;5042984;28;20040;-80
2022/06/24 07:33:51;;;;;;;;;;;20.40;94.10;;;;;;5043575;28;20487;-79
2022/06/24 07:36:18;;;;;;;;;;;20.40;94.10;;;;;;5039934;28;19933;-79
2022/06/24 07:38:46;;;;;;;;;;;20.40;94.10;;;;;;5047546;28;20322;-79
2022/06/24 07:41:14;;;;;;;;;;;20.40;94.10;;;;;;5047722;28;20366;-80
2022/06/24 07:43:41;;;;;;;;;;;20.40;94.10;;;;;;5123309;22;19945;-84
2022/06/24 07:46:08;;;;;;;;;;;20.40;94.00;;;;;;4099341;22;20206;-79
2022/06/24 07:48:36;;;;;;;;;;;20.40;94.00;;;;;;5066835;22;19956;-79
2022/06/24 07:51:10;;;;;;;;;;;20.50;93.90;;;;;;5052456;28;20661;-79
2022/06/24 07:53:37;;;;;;;;;;;20.40;93.90;;;;;;5032154;28;20111;-79
2022/06/24 07:58:50;;;;;;;;;;;20.50;93.80;;;;;;5043178;28;19932;-76
2022/06/24 08:01:17;;;;;;;;;;;20.50;93.80;;;;;;5045515;28;19986;-77
2022/06/24 08:03:44;;;;;;;;;;;20.50;93.80;;;;;;5052706;28;20685;-76
2022/06/24 08:06:11;;;;;;;;;;;20.50;93.80;;;;;;5055412;28;20448;-78
2022/06/24 08:08:38;;;;;;;;;;;20.50;93.70;;;;;;5048358;28;20292;-76
2022/06/24 08:11:06;;;;;;;;;;;20.50;93.90;;;;;;5046822;28;19932;-77
2022/06/24 08:13:33;;;;;;;;;;;20.60;93.90;;;;;;5028785;28;19925;-74
2022/06/24 08:16:00;;;;;;;;;;;20.60;94.10;;;;;;5053117;28;19971;-75
2022/06/24 08:18:27;;;;;;;;;;;20.60;94.10;;;;;;5042388;28;20162;-79
2022/06/24 08:20:54;;;;;;;;;;;20.60;94.10;;;;;;5044208;28;19925;-76
2022/06/24 08:23:21;;;;;;;;;;;20.60;94.20;;;;;;5032226;28;19929;-76
2022/06/24 08:25:49;;;;;;;;;;;20.60;94.60;;;;;;5053904;28;20333;-76
2022/06/24 08:28:18;;;;;;;;;;;20.70;94.50;;;;;;5050306;28;19952;-77
2022/06/24 08:30:45;;;;;;;;;;;20.60;94.40;;;;;;5049262;28;19925;-77
2022/06/24 08:33:12;;;;;;;;;;;20.70;94.40;;;;;;5050633;28;19925;-76
2022/06/24 08:35:39;;;;;;;;;;;20.70;94.40;;;;;;5047434;28;20310;-76
2022/06/24 08:38:06;;;;;;;;;;;20.70;94.40;;;;;;5044980;28;19940;-76
2022/06/24 08:40:32;;;;;;;;;;;20.70;94.20;;;;;;5049226;28;20015;-76
2022/06/24 08:43:00;;;;;;;;;;;20.70;94.30;;;;;;5049514;28;20086;-76
2022/06/24 08:45:29;;;;;;;;;;;20.70;94.30;;;;;;5049639;28;19978;-77
2022/06/24 08:47:55;;;;;;;;;;;20.70;94.10;;;;;;5057384;28;19928;-77
2022/06/24 08:50:23;;;;;;;;;;;20.70;94.20;;;;;;5037507;28;20373;-75
2022/06/24 08:52:50;;;;;;;;;;;20.70;94.10;;;;;;5049501;28;19971;-76
2022/06/24 08:55:18;;;;;;;;;;;20.80;94.20;;;;;;5030474;28;20011;-75
2022/06/24 08:57:45;;;;;;;;;;;20.80;94.10;;;;;;5053605;28;20054;-77
2022/06/24 09:00:13;;;;;;;;;;;20.80;94.30;;;;;;5050084;28;19949;-76
2022/06/24 09:02:41;;;;;;;;;;;20.80;94.10;;;;;;5050673;28;19929;-76
2022/06/24 09:05:09;;;;;;;;;;;20.80;94.10;;;;;;5043789;28;19936;-77
2022/06/24 09:07:36;;;;;;;;;;;20.80;94.00;;;;;;5055837;28;20299;-78
2022/06/24 09:10:06;;;;;;;;;;;20.80;93.90;;;;;;5016312;22;19940;-80
2022/06/24 09:12:37;;;;;;;;;;;20.80;93.80;;;;;;5009616;28;20326;-80
2022/06/24 09:15:05;;;;;;;;;;;20.80;93.80;;;;;;5008353;28;20473;-80
2022/06/24 09:17:32;;;;;;;;;;;20.80;93.80;;;;;;5005650;28;19926;-80
2022/06/24 09:20:05;;;;;;;;;;;20.90;93.90;;;;;;5005675;28;19931;-79
2022/06/24 09:22:32;;;;;;;;;;;20.90;93.90;;;;;;5006830;28;20396;-80
2022/06/24 09:25:00;;;;;;;;;;;20.90;93.80;;;;;;5008085;28;19930;-80
2022/06/24 09:27:27;;;;;;;;;;;20.90;93.90;;;;;;5007060;28;19988;-81
2022/06/24 09:29:54;;;;;;;;;;;20.90;93.90;;;;;;5008356;28;19925;-80
2022/06/24 09:32:21;;;;;;;;;;;20.90;93.90;;;;;;5010046;28;19934;-80
2022/06/24 09:35:01;;;;;;;;;;;21.00;93.90;;;;;;5006890;28;19933;-80
2022/06/24 09:37:39;;;;;;;;;;;21.00;94.10;;;;;;5009809;28;19926;-84
2022/06/24 09:40:16;;;;;;;;;;;21.00;94.20;;;;;;4998348;28;20510;-79
2022/06/24 09:42:43;;;;;;;;;;;21.00;94.10;;;;;;5008569;28;19926;-82
2022/06/24 09:45:10;;;;;;;;;;;21.10;94.10;;;;;;5012733;28;19960;-80
2022/06/24 09:47:38;;;;;;;;;;;21.10;94.00;;;;;;5007648;28;19979;-81
2022/06/24 09:50:05;;;;;;;;;;;21.10;94.00;;;;;;5012612;28;20392;-80
2022/06/24 09:52:32;;;;;;;;;;;21.10;94.10;;;;;;5010855;28;20411;-88
2022/06/24 09:55:02;;;;;;;;;;;21.10;94.00;;;;;;5008518;28;19933;-81
2022/06/24 09:57:29;;;;;;;;;;;21.10;94.10;;;;;;5011770;28;19972;-81
2022/06/24 10:02:40;;;;;;;;;;;21.20;94.10;;;;;;5006492;28;19925;-80
2022/06/24 10:05:08;;;;;;;;;;;21.20;94.00;;;;;;5014954;28;19932;-81
2022/06/24 10:07:35;;;;;;;;;;;21.20;94.00;;;;;;5012759;28;19931;-81
2022/06/24 10:10:05;;;;;;;;;;;21.20;94.00;;;;;;5013069;28;20312;-82
2022/06/24 10:12:32;;;;;;;;;;;21.30;94.00;;;;;;5008235;28;19979;-82
2022/06/24 10:14:59;;;;;;;;;;;21.30;94.10;;;;;;5014909;28;19933;-82
2022/06/24 10:17:27;;;;;;;;;;;21.30;94.10;;;;;;5012583;28;19925;-82
2022/06/24 10:19:54;;;;;;;;;;;21.30;94.00;;;;;;5008609;28;19935;-82
2022/06/24 10:22:37;;;;;;;;;;;21.30;93.90;;;;;;5010896;28;20000;-81
2022/06/24 10:25:08;;;;;;;;;;;21.40;94.00;;;;;;5012358;28;19936;-81
2022/06/24 10:27:53;;;;;;;;;;;21.40;93.90;;;;;;5014640;28;20023;-82
2022/06/24 10:30:36;;;;;;;;;;;21.40;93.90;;;;;;5012378;28;19933;-82
2022/06/24 10:33:12;;;;;;;;;;;21.40;93.90;;;;;;5012428;28;20044;-82
2022/06/24 10:35:54;;;;;;;;;;;21.50;94.00;;;;;;5012424;28;20395;-87
2022/06/24 10:38:22;;;;;;;;;;;21.50;93.90;;;;;;5014274;28;19926;-82
2022/06/24 10:40:50;;;;;;;;;;;21.50;93.80;;;;;;5007044;28;19930;-84
2022/06/24 10:43:32;;;;;;;;;;;21.50;93.90;;;;;;5011121;28;19933;-82
2022/06/24 10:46:09;;;;;;;;;;;21.50;93.80;;;;;;5013363;28;19932;-80
2022/06/24 10:48:56;;;;;;;;;;;21.50;93.80;;;;;;5008552;28;19980;-79
2022/06/24 10:51:23;;;;;;;;;;;21.60;93.80;;;;;;5008164;28;21208;-80
2022/06/24 10:54:10;;;;;;;;;;;21.60;93.70;;;;;;5016269;28;19976;-81
2022/06/24 10:56:41;;;;;;;;;;;21.60;93.70;;;;;;5005347;28;20419;-81
2022/06/24 10:59:07;;;;;;;;;;;21.70;93.70;;;;;;5004597;28;20238;-79
2022/06/24 11:01:34;;;;;;;;;;;21.70;93.60;;;;;;5011792;28;19925;-79
2022/06/24 11:04:02;;;;;;;;;;;21.70;93.60;;;;;;5013141;28;19933;-79
2022/06/24 11:06:29;;;;;;;;;;;21.70;93.60;;;;;;5004511;28;19929;-80
2022/06/24 11:08:55;;;;;;;;;;;21.70;93.60;;;;;;5005276;28;20840;-80
2022/06/24 11:11:29;;;;;;;;;;;21.70;93.60;;;;;;5009246;28;19925;-80
2022/06/24 11:13:57;;;;;;;;;;;21.80;93.60;;;;;;5005714;28;19929;-80
2022/06/24 11:16:26;;;;;;;;;;;21.80;93.60;;;;;;5007872;28;19929;-80
2022/06/24 11:18:53;;;;;;;;;;;21.80;93.60;;;;;;5008765;28;19925;-80
2022/06/24 11:21:20;;;;;;;;;;;21.80;93.60;;;;;;5009526;28;20017;-79
2022/06/24 11:23:48;;;;;;;;;;;21.80;93.50;;;;;;5004158;28;19929;-79
2022/06/24 11:26:16;;;;;;;;;;;21.90;93.60;;;;;;5003913;28;20227;-80
2022/06/24 11:28:43;;;;;;;;;;;21.90;93.50;;;;;;5013816;28;20783;-79
2022/06/24 11:31:16;;;;;;;;;;;21.90;93.50;;;;;;5006070;28;20012;-79
2022/06/24 11:33:43;;;;;;;;;;;21.90;93.50;;;;;;5003780;28;19933;-79
2022/06/24 11:36:10;;;;;;;;;;;21.90;93.50;;;;;;5012226;28;19932;-79
2022/06/24 11:38:50;;;;;;;;;;;22.00;93.50;;;;;;5011171;28;19925;-80
2022/06/24 11:41:24;;;;;;;;;;;21.90;93.40;;;;;;5006570;28;19933;-79
2022/06/24 11:43:51;;;;;;;;;;;22.00;93.50;;;;;;5005641;28;20395;-79
2022/06/24 11:46:19;;;;;;;;;;;22.00;93.40;;;;;;5006774;28;20317;-80
2022/06/24 11:48:46;;;;;;;;;;;22.00;93.40;;;;;;5006872;28;19929;-80
2022/06/24 11:51:19;;;;;;;;;;;22.00;93.40;;;;;;5003388;28;20562;-80
2022/06/24 11:53:56;;;;;;;;;;;22.00;93.30;;;;;;5009444;28;20272;-80
2022/06/24 11:56:23;;;;;;;;;;;22.00;93.30;;;;;;5009298;28;20413;-79
2022/06/24 11:58:50;;;;;;;;;;;22.00;93.30;;;;;;5003889;28;19929;-81
2022/06/24 12:01:18;;;;;;;;;;;22.00;93.20;;;;;;5008930;28;19968;-80
2022/06/24 12:03:46;;;;;;;;;;;22.00;93.20;;;;;;5006596;28;19953;-79
2022/06/24 12:06:13;;;;;;;;;;;22.00;93.30;;;;;;5005407;28;20284;-80
2022/06/24 12:08:41;;;;;;;;;;;22.00;93.30;;;;;;5004885;28;19926;-80
2022/06/24 12:11:14;;;;;;;;;;;22.00;93.40;;;;;;5005679;28;19934;-80
2022/06/24 12:13:41;;;;;;;;;;;22.00;93.50;;;;;;5009712;28;19972;-81
2022/06/24 12:16:08;;;;;;;;;;;22.00;93.50;;;;;;5006103;28;19934;-80
2022/06/24 12:18:37;;;;;;;;;;;22.00;93.40;;;;;;5007379;28;19929;-80
2022/06/24 12:21:04;;;;;;;;;;;22.00;93.30;;;;;;5009676;28;19969;-80
2022/06/24 12:23:32;;;;;;;;;;;22.00;93.10;;;;;;5002356;28;20383;-80
2022/06/24 12:26:00;;;;;;;;;;;22.00;93.20;;;;;;5002399;28;20435;-80
2022/06/24 12:28:27;;;;;;;;;;;22.00;93.60;;;;;;5007514;28;20355;-80
2022/06/24 12:30:58;;;;;;;;;;;22.00;93.30;;;;;;5004213;28;20028;-80
2022/06/24 12:33:26;;;;;;;;;;;21.90;93.10;;;;;;5004148;28;19926;-79
2022/06/24 12:36:08;;;;;;;;;;;21.90;93.10;;;;;;5005178;28;19939;-80
2022/06/24 12:38:36;;;;;;;;;;;21.90;93.20;;;;;;5002027;28;19937;-80
2022/06/24 12:41:10;;;;;;;;;;;21.90;93.40;;;;;;5004945;28;19972;-79
2022/06/24 12:43:37;;;;;;;;;;;21.80;93.50;;;;;;5005949;28;19955;-80
2022/06/24 12:46:05;;;;;;;;;;;21.80;93.50;;;;;;5007794;28;19930;-80
2022/06/24 12:51:24;;;;;;;;;;;21.80;93.50;;;;;;5003458;28;19926;-79
2022/06/24 12:53:52;;;;;;;;;;;21.70;93.60;;;;;;5020266;28;19925;-79
2022/06/24 12:56:19;;;;;;;;;;;21.70;93.70;;;;;;5007213;28;20269;-79
2022/06/24 12:58:46;;;;;;;;;;;21.70;93.70;;;;;;5008055;28;19941;-79
2022/06/24 13:01:13;;;;;;;;;;;21.60;93.70;;;;;;5002060;28;20385;-79
2022/06/24 13:03:40;;;;;;;;;;;21.60;93.80;;;;;;5008771;28;19925;-80
2022/06/24 13:06:07;;;;;;;;;;;21.60;93.70;;;;;;5009450;28;19930;-81
2022/06/24 13:08:35;;;;;;;;;;;21.50;93.80;;;;;;5004914;28;19925;-81
2022/06/24 13:11:02;;;;;;;;;;;21.50;93.80;;;;;;5006043;28;19929;-80
2022/06/24 13:13:31;;;;;;;;;;;21.50;93.90;;;;;;5008026;28;19925;-80
2022/06/24 13:15:58;;;;;;;;;;;21.40;93.90;;;;;;5009731;28;20280;-79
2022/06/24 13:18:24;;;;;;;;;;;21.40;93.90;;;;;;5006862;28;19976;-79
2022/06/24 13:20:51;;;;;;;;;;;21.50;94.00;;;;;;5009982;28;19980;-79
2022/06/24 13:23:18;;;;;;;;;;;21.40;94.00;;;;;;5009476;28;20004;-80
2022/06/24 13:25:46;;;;;;;;;;;21.40;94.10;;;;;;5005101;28;19991;-79
2022/06/24 13:28:13;;;;;;;;;;;21.30;94.20;;;;;;5012193;28;20395;-80
2022/06/24 13:30:40;;;;;;;;;;;21.30;94.30;;;;;;5013075;28;20376;-79
2022/06/24 13:33:07;;;;;;;;;;;21.30;94.40;;;;;;5006770;28;20343;-79
2022/06/24 13:35:34;;;;;;;;;;;21.30;94.40;;;;;;5008028;28;20448;-80
2022/06/24 13:38:01;;;;;;;;;;;21.30;94.60;;;;;;5012569;28;19925;-80
2022/06/24 13:40:28;;;;;;;;;;;21.20;94.50;;;;;;5011346;28;19925;-79
2022/06/24 13:42:57;;;;;;;;;;;21.30;94.60;;;;;;5004308;28;19934;-79
2022/06/24 13:45:24;;;;;;;;;;;21.20;94.60;;;;;;5013058;28;19925;-80
2022/06/24 13:47:51;;;;;;;;;;;21.20;94.70;;;;;;5010829;28;19929;-80
2022/06/24 13:50:18;;;;;;;;;;;21.20;94.80;;;;;;5011870;28;19933;-83
2022/06/24 13:52:45;;;;;;;;;;;21.20;95.00;;;;;;5014206;28;19932;-82
2022/06/24 13:55:12;;;;;;;;;;;21.20;95.20;;;;;;5009170;28;19930;-83
2022/06/24 13:57:39;;;;;;;;;;;21.20;95.30;;;;;;5012001;28;20468;-81
2022/06/24 14:00:09;;;;;;;;;;;21.20;95.60;;;;;;5011693;28;20420;-80
2022/06/24 14:02:39;;;;;;;;;;;21.20;96.00;;;;;;5008569;28;19926;-80
2022/06/24 14:05:06;;;;;;;;;;;21.20;96.20;;;;;;5015676;28;19926;-78
2022/06/24 14:07:33;;;;;;;;;;;21.10;96.20;;;;;;5025651;28;20280;-78
2022/06/24 14:10:00;;;;;;;;;;;21.10;96.30;;;;;;5013212;28;19933;-78
2022/06/24 14:12:27;;;;;;;;;;;21.10;96.30;;;;;;5006033;28;20012;-78
2022/06/24 14:14:54;;;;;;;;;;;21.10;96.20;;;;;;5011952;28;20009;-78
2022/06/24 14:17:22;;;;;;;;;;;21.10;96.10;;;;;;5014181;28;19930;-78
2022/06/24 14:19:49;;;;;;;;;;;21.10;96.00;;;;;;5006254;28;19925;-78
2022/06/24 14:22:16;;;;;;;;;;;21.10;95.80;;;;;;5009374;28;20451;-78
2022/06/24 14:24:42;;;;;;;;;;;21.10;95.70;;;;;;5011632;28;20438;-78
2022/06/24 14:27:10;;;;;;;;;;;21.10;95.90;;;;;;5009931;28;19933;-78
2022/06/24 14:29:38;;;;;;;;;;;21.10;95.60;;;;;;5007862;28;19933;-78
2022/06/24 14:32:05;;;;;;;;;;;21.10;95.50;;;;;;5012993;28;19939;-77
2022/06/24 14:34:33;;;;;;;;;;;21.10;95.40;;;;;;5012313;28;19925;-78
2022/06/24 14:37:01;;;;;;;;;;;21.00;95.40;;;;;;5012068;28;19987;-78